sensor_id;sensor_type;location;lat;lon;timestamp;temperature;humidity
63017;DHT22;50274;45.640;11.756;2023-05-02T00:01:40;14.30;78.40
63017;DHT22;50274;45.640;11.756;2023-05-02T00:04:06;14.30;78.40
63017;DHT22;50274;45.640;11.756;2023-05-02T00:06:32;14.30;78.30
63017;DHT22;50274;45.640;11.756;2023-05-02T00:08:59;14.30;78.30
63017;DHT22;50274;45.640;11.756;2023-05-02T00:11:25;14.40;78.30
63017;DHT22;50274;45.640;11.756;2023-05-02T00:13:50;14.40;78.30
63017;DHT22;50274;45.640;11.756;2023-05-02T00:16:16;14.40;78.20
63017;DHT22;50274;45.640;11.756;2023-05-02T00:18:42;14.40;78.20
63017;DHT22;50274;45.640;11.756;2023-05-02T00:21:08;14.40;78.20
63017;DHT22;50274;45.640;11.756;2023-05-02T00:23:34;14.40;78.20
63017;DHT22;50274;45.640;11.756;2023-05-02T00:26:00;14.40;78.20
63017;DHT22;50274;45.640;11.756;2023-05-02T00:28:26;14.40;78.20
63017;DHT22;50274;45.640;11.756;2023-05-02T00:30:52;14.40;78.20
63017;DHT22;50274;45.640;11.756;2023-05-02T00:33:17;14.40;78.20
63017;DHT22;50274;45.640;11.756;2023-05-02T00:35:43;14.40;78.10
63017;DHT22;50274;45.640;11.756;2023-05-02T00:38:09;14.40;78.10
63017;DHT22;50274;45.640;11.756;2023-05-02T00:40:53;14.40;78.20
63017;DHT22;50274;45.640;11.756;2023-05-02T00:43:19;14.40;78.20
63017;DHT22;50274;45.640;11.756;2023-05-02T00:45:45;14.40;78.20
63017;DHT22;50274;45.640;11.756;2023-05-02T00:48:12;14.40;78.20
63017;DHT22;50274;45.640;11.756;2023-05-02T00:50:41;14.40;78.20
63017;DHT22;50274;45.640;11.756;2023-05-02T00:53:08;14.40;78.20
63017;DHT22;50274;45.640;11.756;2023-05-02T00:55:35;14.40;78.20
63017;DHT22;50274;45.640;11.756;2023-05-02T00:58:12;14.50;78.20
63017;DHT22;50274;45.640;11.756;2023-05-02T01:09:33;14.50;78.60
63017;DHT22;50274;45.640;11.756;2023-05-02T01:12:18;14.40;78.70
63017;DHT22;50274;45.640;11.756;2023-05-02T01:14:52;14.40;78.60
63017;DHT22;50274;45.640;11.756;2023-05-02T01:17:21;14.40;78.70
63017;DHT22;50274;45.640;11.756;2023-05-02T01:19:57;14.40;78.60
63017;DHT22;50274;45.640;11.756;2023-05-02T01:22:26;14.40;78.70
63017;DHT22;50274;45.640;11.756;2023-05-02T01:25:01;14.40;78.80
63017;DHT22;50274;45.640;11.756;2023-05-02T01:30:21;14.40;78.80
63017;DHT22;50274;45.640;11.756;2023-05-02T01:32:49;14.40;78.80
63017;DHT22;50274;45.640;11.756;2023-05-02T01:35:17;14.40;78.80
63017;DHT22;50274;45.640;11.756;2023-05-02T01:37:46;14.40;78.70
63017;DHT22;50274;45.640;11.756;2023-05-02T01:40:18;14.40;78.70
63017;DHT22;50274;45.640;11.756;2023-05-02T01:42:49;14.40;78.80
63017;DHT22;50274;45.640;11.756;2023-05-02T01:45:16;14.40;78.80
63017;DHT22;50274;45.640;11.756;2023-05-02T01:47:43;14.40;78.80
63017;DHT22;50274;45.640;11.756;2023-05-02T01:50:12;14.30;78.80
63017;DHT22;50274;45.640;11.756;2023-05-02T01:52:41;14.40;78.80
63017;DHT22;50274;45.640;11.756;2023-05-02T01:55:12;14.30;78.90
63017;DHT22;50274;45.640;11.756;2023-05-02T01:57:40;14.30;78.90
63017;DHT22;50274;45.640;11.756;2023-05-02T02:00:07;14.30;79.00
63017;DHT22;50274;45.640;11.756;2023-05-02T02:02:35;14.30;79.10
63017;DHT22;50274;45.640;11.756;2023-05-02T02:05:04;14.30;79.10
63017;DHT22;50274;45.640;11.756;2023-05-02T02:07:31;14.30;79.10
63017;DHT22;50274;45.640;11.756;2023-05-02T02:09:57;14.30;79.00
63017;DHT22;50274;45.640;11.756;2023-05-02T02:12:27;14.30;78.90
63017;DHT22;50274;45.640;11.756;2023-05-02T02:15:05;14.30;78.90
63017;DHT22;50274;45.640;11.756;2023-05-02T02:18:00;14.30;78.80
63017;DHT22;50274;45.640;11.756;2023-05-02T02:20:28;14.30;78.80
63017;DHT22;50274;45.640;11.756;2023-05-02T02:22:55;14.30;78.70
63017;DHT22;50274;45.640;11.756;2023-05-02T02:25:21;14.30;78.70
63017;DHT22;50274;45.640;11.756;2023-05-02T02:27:49;14.30;78.70
63017;DHT22;50274;45.640;11.756;2023-05-02T02:30:15;14.30;78.70
63017;DHT22;50274;45.640;11.756;2023-05-02T02:32:41;14.30;78.70
63017;DHT22;50274;45.640;11.756;2023-05-02T02:35:07;14.30;78.70
63017;DHT22;50274;45.640;11.756;2023-05-02T02:40:30;14.30;78.80
63017;DHT22;50274;45.640;11.756;2023-05-02T02:43:19;14.30;78.90
63017;DHT22;50274;45.640;11.756;2023-05-02T02:48:47;14.30;78.90
63017;DHT22;50274;45.640;11.756;2023-05-02T02:51:43;14.30;78.90
63017;DHT22;50274;45.640;11.756;2023-05-02T03:00:25;14.30;78.90
63017;DHT22;50274;45.640;11.756;2023-05-02T03:02:53;14.30;78.90
63017;DHT22;50274;45.640;11.756;2023-05-02T03:05:21;14.30;78.90
63017;DHT22;50274;45.640;11.756;2023-05-02T03:07:48;14.20;78.90
63017;DHT22;50274;45.640;11.756;2023-05-02T03:10:14;14.30;78.90
63017;DHT22;50274;45.640;11.756;2023-05-02T03:12:40;14.30;78.90
63017;DHT22;50274;45.640;11.756;2023-05-02T03:18:05;14.30;78.90
63017;DHT22;50274;45.640;11.756;2023-05-02T03:20:31;14.30;78.80
63017;DHT22;50274;45.640;11.756;2023-05-02T03:22:57;14.30;78.80
63017;DHT22;50274;45.640;11.756;2023-05-02T03:25:22;14.40;78.80
63017;DHT22;50274;45.640;11.756;2023-05-02T03:27:48;14.30;78.70
63017;DHT22;50274;45.640;11.756;2023-05-02T03:30:14;14.40;78.80
63017;DHT22;50274;45.640;11.756;2023-05-02T03:32:40;14.40;78.80
63017;DHT22;50274;45.640;11.756;2023-05-02T03:35:06;14.40;78.70
63017;DHT22;50274;45.640;11.756;2023-05-02T03:37:33;14.40;78.70
63017;DHT22;50274;45.640;11.756;2023-05-02T03:39:59;14.40;78.70
63017;DHT22;50274;45.640;11.756;2023-05-02T03:42:25;14.40;78.80
63017;DHT22;50274;45.640;11.756;2023-05-02T03:44:52;14.40;78.80
63017;DHT22;50274;45.640;11.756;2023-05-02T03:47:18;14.40;78.80
63017;DHT22;50274;45.640;11.756;2023-05-02T03:49:44;14.40;78.80
63017;DHT22;50274;45.640;11.756;2023-05-02T03:52:11;14.40;78.90
63017;DHT22;50274;45.640;11.756;2023-05-02T03:54:37;14.40;78.90
63017;DHT22;50274;45.640;11.756;2023-05-02T03:57:03;14.40;78.90
63017;DHT22;50274;45.640;11.756;2023-05-02T03:59:33;14.40;78.90
63017;DHT22;50274;45.640;11.756;2023-05-02T04:01:59;14.40;78.90
63017;DHT22;50274;45.640;11.756;2023-05-02T04:04:25;14.40;78.90
63017;DHT22;50274;45.640;11.756;2023-05-02T04:06:51;14.40;79.00
63017;DHT22;50274;45.640;11.756;2023-05-02T04:09:17;14.40;79.00
63017;DHT22;50274;45.640;11.756;2023-05-02T04:11:48;14.40;79.00
63017;DHT22;50274;45.640;11.756;2023-05-02T04:14:13;14.40;79.00
63017;DHT22;50274;45.640;11.756;2023-05-02T04:16:39;14.40;78.90
63017;DHT22;50274;45.640;11.756;2023-05-02T04:19:05;14.40;79.00
63017;DHT22;50274;45.640;11.756;2023-05-02T04:21:31;14.40;79.00
63017;DHT22;50274;45.640;11.756;2023-05-02T04:23:57;14.40;79.00
63017;DHT22;50274;45.640;11.756;2023-05-02T04:26:23;14.40;79.00
63017;DHT22;50274;45.640;11.756;2023-05-02T04:28:49;14.30;78.90
63017;DHT22;50274;45.640;11.756;2023-05-02T04:31:14;14.40;78.90
63017;DHT22;50274;45.640;11.756;2023-05-02T04:33:40;14.30;79.00
63017;DHT22;50274;45.640;11.756;2023-05-02T04:36:08;14.30;79.00
63017;DHT22;50274;45.640;11.756;2023-05-02T04:38:35;14.30;79.00
63017;DHT22;50274;45.640;11.756;2023-05-02T04:41:01;14.30;79.00
63017;DHT22;50274;45.640;11.756;2023-05-02T04:43:26;14.30;78.90
63017;DHT22;50274;45.640;11.756;2023-05-02T04:45:52;14.30;78.90
63017;DHT22;50274;45.640;11.756;2023-05-02T04:48:18;14.30;78.90
63017;DHT22;50274;45.640;11.756;2023-05-02T04:50:44;14.30;78.90
63017;DHT22;50274;45.640;11.756;2023-05-02T04:53:11;14.30;78.90
63017;DHT22;50274;45.640;11.756;2023-05-02T04:55:37;14.40;78.90
63017;DHT22;50274;45.640;11.756;2023-05-02T04:58:03;14.40;79.00
63017;DHT22;50274;45.640;11.756;2023-05-02T05:00:29;14.40;78.90
63017;DHT22;50274;45.640;11.756;2023-05-02T05:02:55;14.30;78.90
63017;DHT22;50274;45.640;11.756;2023-05-02T05:05:21;14.30;78.80
63017;DHT22;50274;45.640;11.756;2023-05-02T05:07:47;14.30;78.90
63017;DHT22;50274;45.640;11.756;2023-05-02T05:10:12;14.40;78.80
63017;DHT22;50274;45.640;11.756;2023-05-02T05:12:38;14.40;78.90
63017;DHT22;50274;45.640;11.756;2023-05-02T05:15:05;14.40;78.90
63017;DHT22;50274;45.640;11.756;2023-05-02T05:17:31;14.40;78.80
63017;DHT22;50274;45.640;11.756;2023-05-02T05:19:57;14.40;78.90
63017;DHT22;50274;45.640;11.756;2023-05-02T05:22:23;14.40;78.90
63017;DHT22;50274;45.640;11.756;2023-05-02T05:24:54;14.40;78.90
63017;DHT22;50274;45.640;11.756;2023-05-02T05:27:20;14.40;79.00
63017;DHT22;50274;45.640;11.756;2023-05-02T05:29:46;14.40;79.00
63017;DHT22;50274;45.640;11.756;2023-05-02T05:32:12;14.40;79.20
63017;DHT22;50274;45.640;11.756;2023-05-02T05:34:38;14.40;79.20
63017;DHT22;50274;45.640;11.756;2023-05-02T05:37:04;14.40;79.30
63017;DHT22;50274;45.640;11.756;2023-05-02T05:39:30;14.40;79.20
63017;DHT22;50274;45.640;11.756;2023-05-02T05:41:57;14.40;79.30
63017;DHT22;50274;45.640;11.756;2023-05-02T05:44:23;14.40;79.30
63017;DHT22;50274;45.640;11.756;2023-05-02T05:46:50;14.40;79.30
63017;DHT22;50274;45.640;11.756;2023-05-02T05:49:16;14.40;79.20
63017;DHT22;50274;45.640;11.756;2023-05-02T05:51:42;14.50;79.10
63017;DHT22;50274;45.640;11.756;2023-05-02T05:54:07;14.50;79.10
63017;DHT22;50274;45.640;11.756;2023-05-02T05:56:33;14.60;79.00
63017;DHT22;50274;45.640;11.756;2023-05-02T05:58:59;14.60;79.00
63017;DHT22;50274;45.640;11.756;2023-05-02T06:01:25;14.60;79.00
63017;DHT22;50274;45.640;11.756;2023-05-02T06:03:51;14.60;79.10
63017;DHT22;50274;45.640;11.756;2023-05-02T06:06:17;14.60;79.00
63017;DHT22;50274;45.640;11.756;2023-05-02T06:08:42;14.60;79.00
63017;DHT22;50274;45.640;11.756;2023-05-02T06:11:09;14.60;79.00
63017;DHT22;50274;45.640;11.756;2023-05-02T06:13:37;14.60;79.00
63017;DHT22;50274;45.640;11.756;2023-05-02T06:16:04;14.60;79.00
63017;DHT22;50274;45.640;11.756;2023-05-02T06:18:29;14.50;79.00
63017;DHT22;50274;45.640;11.756;2023-05-02T06:20:55;14.50;79.10
63017;DHT22;50274;45.640;11.756;2023-05-02T06:23:22;14.50;79.10
63017;DHT22;50274;45.640;11.756;2023-05-02T06:25:47;14.50;79.10
63017;DHT22;50274;45.640;11.756;2023-05-02T06:28:13;14.50;79.10
63017;DHT22;50274;45.640;11.756;2023-05-02T06:30:39;14.50;79.10
63017;DHT22;50274;45.640;11.756;2023-05-02T06:33:05;14.50;79.10
63017;DHT22;50274;45.640;11.756;2023-05-02T06:35:31;14.50;79.10
63017;DHT22;50274;45.640;11.756;2023-05-02T06:37:57;14.50;79.10
63017;DHT22;50274;45.640;11.756;2023-05-02T06:40:23;14.50;79.20
63017;DHT22;50274;45.640;11.756;2023-05-02T06:42:49;14.60;79.30
63017;DHT22;50274;45.640;11.756;2023-05-02T06:45:15;14.60;79.40
63017;DHT22;50274;45.640;11.756;2023-05-02T06:47:40;14.60;79.60
63017;DHT22;50274;45.640;11.756;2023-05-02T06:50:07;14.60;79.60
63017;DHT22;50274;45.640;11.756;2023-05-02T06:52:33;14.60;79.60
63017;DHT22;50274;45.640;11.756;2023-05-02T06:54:58;14.70;79.60
63017;DHT22;50274;45.640;11.756;2023-05-02T06:57:24;14.70;79.50
63017;DHT22;50274;45.640;11.756;2023-05-02T06:59:52;14.70;79.50
63017;DHT22;50274;45.640;11.756;2023-05-02T07:02:22;14.70;79.50
63017;DHT22;50274;45.640;11.756;2023-05-02T07:04:48;14.70;79.50
63017;DHT22;50274;45.640;11.756;2023-05-02T07:07:14;14.70;79.50
63017;DHT22;50274;45.640;11.756;2023-05-02T07:09:43;14.70;79.50
63017;DHT22;50274;45.640;11.756;2023-05-02T07:12:08;14.80;79.60
63017;DHT22;50274;45.640;11.756;2023-05-02T07:14:34;14.80;79.60
63017;DHT22;50274;45.640;11.756;2023-05-02T07:17:00;14.80;79.60
63017;DHT22;50274;45.640;11.756;2023-05-02T07:19:26;14.80;79.70
63017;DHT22;50274;45.640;11.756;2023-05-02T07:21:52;14.80;79.70
63017;DHT22;50274;45.640;11.756;2023-05-02T07:24:17;14.80;79.80
63017;DHT22;50274;45.640;11.756;2023-05-02T07:26:43;14.90;79.70
63017;DHT22;50274;45.640;11.756;2023-05-02T07:29:09;14.90;79.70
63017;DHT22;50274;45.640;11.756;2023-05-02T07:31:35;14.90;79.80
63017;DHT22;50274;45.640;11.756;2023-05-02T07:34:01;14.90;79.80
63017;DHT22;50274;45.640;11.756;2023-05-02T07:36:27;14.90;79.80
63017;DHT22;50274;45.640;11.756;2023-05-02T07:38:53;14.90;79.70
63017;DHT22;50274;45.640;11.756;2023-05-02T07:41:18;14.90;79.90
63017;DHT22;50274;45.640;11.756;2023-05-02T07:43:44;15.00;79.80
63017;DHT22;50274;45.640;11.756;2023-05-02T07:46:10;15.00;79.70
63017;DHT22;50274;45.640;11.756;2023-05-02T07:48:36;15.00;79.80
63017;DHT22;50274;45.640;11.756;2023-05-02T07:51:06;15.00;79.70
63017;DHT22;50274;45.640;11.756;2023-05-02T07:53:32;15.10;79.60
63017;DHT22;50274;45.640;11.756;2023-05-02T07:55:58;15.10;79.60
63017;DHT22;50274;45.640;11.756;2023-05-02T07:58:24;15.10;79.60
63017;DHT22;50274;45.640;11.756;2023-05-02T08:00:50;15.10;79.60
63017;DHT22;50274;45.640;11.756;2023-05-02T08:03:16;15.10;79.50
63017;DHT22;50274;45.640;11.756;2023-05-02T08:05:41;15.20;79.50
63017;DHT22;50274;45.640;11.756;2023-05-02T08:08:07;15.20;79.40
63017;DHT22;50274;45.640;11.756;2023-05-02T08:10:33;15.30;79.50
63017;DHT22;50274;45.640;11.756;2023-05-02T08:12:58;15.30;79.50
63017;DHT22;50274;45.640;11.756;2023-05-02T08:15:24;15.30;79.40
63017;DHT22;50274;45.640;11.756;2023-05-02T08:17:50;15.30;79.30
63017;DHT22;50274;45.640;11.756;2023-05-02T08:20:16;15.40;79.20
63017;DHT22;50274;45.640;11.756;2023-05-02T08:22:42;15.40;79.10
63017;DHT22;50274;45.640;11.756;2023-05-02T08:25:08;15.40;79.10
63017;DHT22;50274;45.640;11.756;2023-05-02T08:27:34;15.40;79.00
63017;DHT22;50274;45.640;11.756;2023-05-02T08:30:00;15.50;79.10
63017;DHT22;50274;45.640;11.756;2023-05-02T08:32:25;15.50;79.00
63017;DHT22;50274;45.640;11.756;2023-05-02T08:34:55;15.50;79.00
63017;DHT22;50274;45.640;11.756;2023-05-02T08:37:24;15.60;79.10
63017;DHT22;50274;45.640;11.756;2023-05-02T08:39:50;15.70;79.20
63017;DHT22;50274;45.640;11.756;2023-05-02T08:42:16;15.70;79.20
63017;DHT22;50274;45.640;11.756;2023-05-02T08:44:42;15.70;79.30
63017;DHT22;50274;45.640;11.756;2023-05-02T08:47:10;15.80;79.20
63017;DHT22;50274;45.640;11.756;2023-05-02T08:49:38;15.80;79.30
63017;DHT22;50274;45.640;11.756;2023-05-02T08:52:04;15.90;79.20
63017;DHT22;50274;45.640;11.756;2023-05-02T08:54:32;15.90;79.10
63017;DHT22;50274;45.640;11.756;2023-05-02T08:56:58;15.90;78.90
63017;DHT22;50274;45.640;11.756;2023-05-02T08:59:27;15.90;78.80
63017;DHT22;50274;45.640;11.756;2023-05-02T09:01:59;16.00;78.80
63017;DHT22;50274;45.640;11.756;2023-05-02T09:04:30;16.00;78.80
63017;DHT22;50274;45.640;11.756;2023-05-02T09:06:57;16.00;78.90
63017;DHT22;50274;45.640;11.756;2023-05-02T09:09:23;16.00;78.80
63017;DHT22;50274;45.640;11.756;2023-05-02T09:11:50;16.00;78.80
63017;DHT22;50274;45.640;11.756;2023-05-02T09:14:17;16.00;78.90
63017;DHT22;50274;45.640;11.756;2023-05-02T09:16:43;16.10;78.70
63017;DHT22;50274;45.640;11.756;2023-05-02T09:19:10;16.10;79.00
63017;DHT22;50274;45.640;11.756;2023-05-02T09:21:47;16.10;78.70
63017;DHT22;50274;45.640;11.756;2023-05-02T09:24:21;16.20;78.80
63017;DHT22;50274;45.640;11.756;2023-05-02T09:29:35;16.30;78.70
63017;DHT22;50274;45.640;11.756;2023-05-02T09:32:03;16.40;78.60
63017;DHT22;50274;45.640;11.756;2023-05-02T09:34:30;16.40;78.50
63017;DHT22;50274;45.640;11.756;2023-05-02T09:36:56;16.40;78.50
63017;DHT22;50274;45.640;11.756;2023-05-02T09:39:27;16.50;78.50
63017;DHT22;50274;45.640;11.756;2023-05-02T09:41:56;16.50;78.60
63017;DHT22;50274;45.640;11.756;2023-05-02T09:44:24;16.50;78.50
63017;DHT22;50274;45.640;11.756;2023-05-02T09:46:54;16.50;78.60
63017;DHT22;50274;45.640;11.756;2023-05-02T09:49:42;16.60;78.50
63017;DHT22;50274;45.640;11.756;2023-05-02T09:52:15;16.60;78.40
63017;DHT22;50274;45.640;11.756;2023-05-02T09:54:41;16.60;78.20
63017;DHT22;50274;45.640;11.756;2023-05-02T09:57:07;16.60;78.00
63017;DHT22;50274;45.640;11.756;2023-05-02T09:59:35;16.60;78.00
63017;DHT22;50274;45.640;11.756;2023-05-02T10:02:02;16.60;78.00
63017;DHT22;50274;45.640;11.756;2023-05-02T10:04:30;16.50;78.10
63017;DHT22;50274;45.640;11.756;2023-05-02T10:06:56;16.50;78.10
63017;DHT22;50274;45.640;11.756;2023-05-02T10:09:24;16.50;78.30
63017;DHT22;50274;45.640;11.756;2023-05-02T10:11:52;16.50;78.30
63017;DHT22;50274;45.640;11.756;2023-05-02T10:14:20;16.50;78.20
63017;DHT22;50274;45.640;11.756;2023-05-02T10:19:56;16.60;78.10
63017;DHT22;50274;45.640;11.756;2023-05-02T10:22:22;16.60;77.90
63017;DHT22;50274;45.640;11.756;2023-05-02T10:24:49;16.60;78.00
63017;DHT22;50274;45.640;11.756;2023-05-02T10:27:17;16.60;77.70
63017;DHT22;50274;45.640;11.756;2023-05-02T10:29:43;16.80;77.50
63017;DHT22;50274;45.640;11.756;2023-05-02T10:32:10;16.80;77.30
63017;DHT22;50274;45.640;11.756;2023-05-02T10:34:36;17.00;77.20
63017;DHT22;50274;45.640;11.756;2023-05-02T10:37:03;17.10;77.10
63017;DHT22;50274;45.640;11.756;2023-05-02T10:39:31;17.30;77.00
63017;DHT22;50274;45.640;11.756;2023-05-02T10:41:58;17.40;77.10
63017;DHT22;50274;45.640;11.756;2023-05-02T10:44:37;17.60;77.00
63017;DHT22;50274;45.640;11.756;2023-05-02T10:47:22;17.70;76.90
63017;DHT22;50274;45.640;11.756;2023-05-02T10:52:35;17.80;76.80
63017;DHT22;50274;45.640;11.756;2023-05-02T10:55:28;17.80;76.20
63017;DHT22;50274;45.640;11.756;2023-05-02T11:00:28;17.70;76.10
63017;DHT22;50274;45.640;11.756;2023-05-02T11:02:54;17.70;76.00
63017;DHT22;50274;45.640;11.756;2023-05-02T11:05:24;17.70;76.00
63017;DHT22;50274;45.640;11.756;2023-05-02T11:10:42;17.60;76.20
63017;DHT22;50274;45.640;11.756;2023-05-02T11:13:10;17.60;76.10
63017;DHT22;50274;45.640;11.756;2023-05-02T11:18:09;17.60;76.20
63017;DHT22;50274;45.640;11.756;2023-05-02T11:20:43;17.60;75.80
63017;DHT22;50274;45.640;11.756;2023-05-02T11:25:45;17.50;75.20
63017;DHT22;50274;45.640;11.756;2023-05-02T11:28:44;17.50;74.90
63017;DHT22;50274;45.640;11.756;2023-05-02T11:34:01;17.30;74.70
63017;DHT22;50274;45.640;11.756;2023-05-02T11:36:28;17.10;74.90
63017;DHT22;50274;45.640;11.756;2023-05-02T11:38:55;17.10;75.20
63017;DHT22;50274;45.640;11.756;2023-05-02T11:41:21;17.10;75.50
63017;DHT22;50274;45.640;11.756;2023-05-02T11:43:47;17.10;75.60
63017;DHT22;50274;45.640;11.756;2023-05-02T11:46:13;17.10;75.50
63017;DHT22;50274;45.640;11.756;2023-05-02T11:48:40;17.10;75.50
63017;DHT22;50274;45.640;11.756;2023-05-02T11:51:06;17.20;75.40
63017;DHT22;50274;45.640;11.756;2023-05-02T11:53:32;17.30;75.30
63017;DHT22;50274;45.640;11.756;2023-05-02T11:55:59;17.30;75.30
63017;DHT22;50274;45.640;11.756;2023-05-02T11:58:28;17.30;75.70
63017;DHT22;50274;45.640;11.756;2023-05-02T12:00:54;17.40;75.40
63017;DHT22;50274;45.640;11.756;2023-05-02T12:03:30;17.50;75.30
63017;DHT22;50274;45.640;11.756;2023-05-02T12:06:07;17.50;75.60
63017;DHT22;50274;45.640;11.756;2023-05-02T12:08:35;17.60;75.50
63017;DHT22;50274;45.640;11.756;2023-05-02T12:11:00;17.60;75.30
63017;DHT22;50274;45.640;11.756;2023-05-02T12:13:26;17.60;75.00
63017;DHT22;50274;45.640;11.756;2023-05-02T12:15:53;17.60;74.70
63017;DHT22;50274;45.640;11.756;2023-05-02T12:18:21;17.60;74.60
63017;DHT22;50274;45.640;11.756;2023-05-02T12:20:52;17.70;74.50
63017;DHT22;50274;45.640;11.756;2023-05-02T12:23:23;17.70;74.40
63017;DHT22;50274;45.640;11.756;2023-05-02T12:25:49;17.70;74.40
63017;DHT22;50274;45.640;11.756;2023-05-02T12:28:19;17.70;74.40
63017;DHT22;50274;45.640;11.756;2023-05-02T12:30:47;17.80;74.30
63017;DHT22;50274;45.640;11.756;2023-05-02T12:33:14;17.80;74.00
63017;DHT22;50274;45.640;11.756;2023-05-02T12:35:41;17.80;73.80
63017;DHT22;50274;45.640;11.756;2023-05-02T12:38:12;17.80;73.60
63017;DHT22;50274;45.640;11.756;2023-05-02T12:40:44;17.90;73.50
63017;DHT22;50274;45.640;11.756;2023-05-02T12:43:11;17.90;73.60
63017;DHT22;50274;45.640;11.756;2023-05-02T12:45:36;17.90;73.50
63017;DHT22;50274;45.640;11.756;2023-05-02T12:48:26;17.90;73.00
63017;DHT22;50274;45.640;11.756;2023-05-02T12:50:53;17.90;72.70
63017;DHT22;50274;45.640;11.756;2023-05-02T12:53:42;17.80;72.40
63017;DHT22;50274;45.640;11.756;2023-05-02T12:56:09;17.80;72.00
63017;DHT22;50274;45.640;11.756;2023-05-02T12:58:43;17.80;71.50
63017;DHT22;50274;45.640;11.756;2023-05-02T13:01:10;17.90;71.20
63017;DHT22;50274;45.640;11.756;2023-05-02T13:03:36;17.80;70.70
63017;DHT22;50274;45.640;11.756;2023-05-02T13:06:02;17.90;70.50
63017;DHT22;50274;45.640;11.756;2023-05-02T13:08:28;17.80;70.40
63017;DHT22;50274;45.640;11.756;2023-05-02T13:10:54;17.90;70.80
63017;DHT22;50274;45.640;11.756;2023-05-02T13:13:20;18.00;71.00
63017;DHT22;50274;45.640;11.756;2023-05-02T13:15:46;18.00;69.70
63017;DHT22;50274;45.640;11.756;2023-05-02T13:18:12;18.00;68.90
63017;DHT22;50274;45.640;11.756;2023-05-02T13:20:38;18.00;69.10
63017;DHT22;50274;45.640;11.756;2023-05-02T13:23:03;17.90;68.60
63017;DHT22;50274;45.640;11.756;2023-05-02T13:25:29;17.90;68.70
63017;DHT22;50274;45.640;11.756;2023-05-02T13:27:55;17.90;68.70
63017;DHT22;50274;45.640;11.756;2023-05-02T13:30:21;17.90;68.80
63017;DHT22;50274;45.640;11.756;2023-05-02T13:32:46;17.80;68.90
63017;DHT22;50274;45.640;11.756;2023-05-02T13:35:12;17.80;69.20
63017;DHT22;50274;45.640;11.756;2023-05-02T13:37:40;17.80;69.30
63017;DHT22;50274;45.640;11.756;2023-05-02T13:40:06;17.80;69.60
63017;DHT22;50274;45.640;11.756;2023-05-02T13:42:32;17.70;69.80
63017;DHT22;50274;45.640;11.756;2023-05-02T13:44:58;17.70;69.90
63017;DHT22;50274;45.640;11.756;2023-05-02T13:47:25;17.70;69.60
63017;DHT22;50274;45.640;11.756;2023-05-02T13:49:51;17.70;69.80
63017;DHT22;50274;45.640;11.756;2023-05-02T13:52:17;17.70;69.50
63017;DHT22;50274;45.640;11.756;2023-05-02T13:54:42;17.70;69.70
63017;DHT22;50274;45.640;11.756;2023-05-02T13:57:08;17.60;69.80
63017;DHT22;50274;45.640;11.756;2023-05-02T13:59:34;17.60;69.70
63017;DHT22;50274;45.640;11.756;2023-05-02T14:02:00;17.50;70.10
63017;DHT22;50274;45.640;11.756;2023-05-02T14:04:28;17.50;70.20
63017;DHT22;50274;45.640;11.756;2023-05-02T14:06:54;17.40;70.80
63017;DHT22;50274;45.640;11.756;2023-05-02T14:09:19;17.40;71.00
63017;DHT22;50274;45.640;11.756;2023-05-02T14:11:45;17.30;71.00
63017;DHT22;50274;45.640;11.756;2023-05-02T14:14:12;17.30;71.00
63017;DHT22;50274;45.640;11.756;2023-05-02T14:16:39;17.30;71.10
63017;DHT22;50274;45.640;11.756;2023-05-02T14:19:05;17.30;71.20
63017;DHT22;50274;45.640;11.756;2023-05-02T14:21:30;17.20;71.30
63017;DHT22;50274;45.640;11.756;2023-05-02T14:23:57;17.20;71.60
63017;DHT22;50274;45.640;11.756;2023-05-02T14:26:23;17.20;71.80
63017;DHT22;50274;45.640;11.756;2023-05-02T14:28:48;17.20;72.10
63017;DHT22;50274;45.640;11.756;2023-05-02T14:31:14;17.20;72.00
63017;DHT22;50274;45.640;11.756;2023-05-02T14:33:40;17.30;71.80
63017;DHT22;50274;45.640;11.756;2023-05-02T14:36:06;17.30;71.20
63017;DHT22;50274;45.640;11.756;2023-05-02T14:38:32;17.20;71.50
63017;DHT22;50274;45.640;11.756;2023-05-02T14:40:58;17.10;71.60
63017;DHT22;50274;45.640;11.756;2023-05-02T14:43:24;17.10;71.80
63017;DHT22;50274;45.640;11.756;2023-05-02T14:45:51;17.10;71.90
63017;DHT22;50274;45.640;11.756;2023-05-02T14:48:17;17.10;72.00
63017;DHT22;50274;45.640;11.756;2023-05-02T14:50:43;17.10;72.10
63017;DHT22;50274;45.640;11.756;2023-05-02T14:53:09;17.10;72.10
63017;DHT22;50274;45.640;11.756;2023-05-02T14:55:37;17.10;71.80
63017;DHT22;50274;45.640;11.756;2023-05-02T14:58:07;17.10;71.90
63017;DHT22;50274;45.640;11.756;2023-05-02T15:00:36;17.10;72.30
63017;DHT22;50274;45.640;11.756;2023-05-02T15:03:06;17.10;72.50
63017;DHT22;50274;45.640;11.756;2023-05-02T15:05:32;17.10;72.60
63017;DHT22;50274;45.640;11.756;2023-05-02T15:07:59;17.10;72.40
63017;DHT22;50274;45.640;11.756;2023-05-02T15:10:25;17.10;72.30
63017;DHT22;50274;45.640;11.756;2023-05-02T15:12:51;17.10;72.00
63017;DHT22;50274;45.640;11.756;2023-05-02T15:15:17;17.10;72.00
63017;DHT22;50274;45.640;11.756;2023-05-02T15:17:43;17.10;72.20
63017;DHT22;50274;45.640;11.756;2023-05-02T15:20:10;17.00;72.40
63017;DHT22;50274;45.640;11.756;2023-05-02T15:22:37;17.00;72.70
63017;DHT22;50274;45.640;11.756;2023-05-02T15:25:03;17.00;72.90
63017;DHT22;50274;45.640;11.756;2023-05-02T15:27:29;16.90;72.60
63017;DHT22;50274;45.640;11.756;2023-05-02T15:29:54;16.90;72.80
63017;DHT22;50274;45.640;11.756;2023-05-02T15:32:20;16.90;72.90
63017;DHT22;50274;45.640;11.756;2023-05-02T15:34:46;16.90;72.70
63017;DHT22;50274;45.640;11.756;2023-05-02T15:37:12;16.90;72.50
63017;DHT22;50274;45.640;11.756;2023-05-02T15:39:38;16.80;72.60
63017;DHT22;50274;45.640;11.756;2023-05-02T15:42:04;16.80;72.70
63017;DHT22;50274;45.640;11.756;2023-05-02T15:44:36;16.80;72.90
63017;DHT22;50274;45.640;11.756;2023-05-02T15:47:02;16.80;72.90
63017;DHT22;50274;45.640;11.756;2023-05-02T15:49:28;16.80;72.90
63017;DHT22;50274;45.640;11.756;2023-05-02T15:51:58;16.70;72.80
63017;DHT22;50274;45.640;11.756;2023-05-02T15:54:24;16.70;72.80
63017;DHT22;50274;45.640;11.756;2023-05-02T15:56:50;16.70;72.80
63017;DHT22;50274;45.640;11.756;2023-05-02T15:59:16;16.70;72.70
63017;DHT22;50274;45.640;11.756;2023-05-02T16:01:43;16.70;72.50
63017;DHT22;50274;45.640;11.756;2023-05-02T16:04:09;16.70;72.50
63017;DHT22;50274;45.640;11.756;2023-05-02T16:06:35;16.70;72.60